Startpagina
METAR-TAF:

METAR-TAF

Vliegvelden :

Luchthaven Dakar

Dakar, Senegal

breedte: 14-44N, lengte: 017-30W, hoogte: 27 m

Actueel weer

Dit bericht is 2 uur en het 10 minuten geleden gemaakt, om 19:00 UTC
Wind 6 kt uit het westen
Temperatuur 27°C
Vochtigheid 74%
Druk 1010 hPa
Zicht 10 km of meer
Weinig wolken op 1300 ft
Verspreide wolken op 13000 ft

METAR: GOOY 211900Z 28006KT 9999 FEW013 SCT130 27/22 Q1010

Tijdstip: 21:10 (21:10 UTC)

Verwachting

Dit bericht is 3 uur en het 40 minuten geleden gemaakt, om 17:30 UTC
Verwachting geldig van 21 om 18 UTC tot 22 om 24 UTC
Wind 8 kt uit het westnoordwesten
Zicht 10 km of meer
Verspreide wolken op 1300 ft

TAF: GOOY 211730Z 2118/2224 30008KT 9999 SCT013

Waarnemingen en weersverwachtingen van meer dan 4000 vliegvelden (METAR en TAF).

De beschikbare stations zijn de gele en rode punten op de kaart.

Ga met uw muis naar het station om de naam te zien.

Klik dan om waarnemingen en weersverwachtingen te zien.

kaart wijzigen: klik op de groene knoppen met een zwart kruis om in te zoomen, op de groene knop met een streepje om uit te zoomen of op de groene pijlen voor aangrenzende kaarten.


METAR-TAF: